sensor_id;sensor_type;location;lat;lon;timestamp;pressure;altitude;pressure_sealevel;temperature;humidity
69772;BME280;57046;45.988;18.664;2024-01-06T00:01:41;99762.94;;;10.72;78.94
69772;BME280;57046;45.988;18.664;2024-01-06T00:04:06;99760.50;;;10.91;78.09
69772;BME280;57046;45.988;18.664;2024-01-06T00:06:32;99758.13;;;11.02;78.25
69772;BME280;57046;45.988;18.664;2024-01-06T00:08:57;99762.47;;;11.06;78.40
69772;BME280;57046;45.988;18.664;2024-01-06T00:11:23;99748.53;;;11.04;78.77
69772;BME280;57046;45.988;18.664;2024-01-06T00:13:48;99760.00;;;11.13;78.58
69772;BME280;57046;45.988;18.664;2024-01-06T00:16:16;99760.09;;;11.17;78.54
69772;BME280;57046;45.988;18.664;2024-01-06T00:18:42;99750.41;;;11.16;79.02
69772;BME280;57046;45.988;18.664;2024-01-06T00:21:08;99749.66;;;11.15;79.17
69772;BME280;57046;45.988;18.664;2024-01-06T00:23:33;99748.75;;;11.11;79.41
69772;BME280;57046;45.988;18.664;2024-01-06T00:25:58;99742.34;;;10.92;79.55
69772;BME280;57046;45.988;18.664;2024-01-06T00:28:24;99749.56;;;10.88;80.31
69772;BME280;57046;45.988;18.664;2024-01-06T00:30:49;99753.59;;;10.94;80.02
69772;BME280;57046;45.988;18.664;2024-01-06T00:33:14;99742.22;;;11.00;79.63
69772;BME280;57046;45.988;18.664;2024-01-06T00:35:40;99750.44;;;11.04;79.50
69772;BME280;57046;45.988;18.664;2024-01-06T00:38:05;99754.94;;;11.12;79.32
69772;BME280;57046;45.988;18.664;2024-01-06T00:40:30;99747.97;;;11.11;79.49
69772;BME280;57046;45.988;18.664;2024-01-06T00:42:56;99747.16;;;11.10;80.14
69772;BME280;57046;45.988;18.664;2024-01-06T00:45:21;99745.56;;;11.09;80.36
69772;BME280;57046;45.988;18.664;2024-01-06T00:47:46;99734.44;;;11.11;80.43
69772;BME280;57046;45.988;18.664;2024-01-06T00:50:11;99735.00;;;11.04;81.13
69772;BME280;57046;45.988;18.664;2024-01-06T00:52:37;99746.03;;;11.11;81.40
69772;BME280;57046;45.988;18.664;2024-01-06T00:55:02;99744.91;;;11.12;81.31
69772;BME280;57046;45.988;18.664;2024-01-06T00:57:28;99742.88;;;11.09;81.60
69772;BME280;57046;45.988;18.664;2024-01-06T00:59:53;99739.75;;;10.95;82.27
69772;BME280;57046;45.988;18.664;2024-01-06T01:02:18;99729.06;;;10.99;82.46
69772;BME280;57046;45.988;18.664;2024-01-06T01:04:44;99727.91;;;11.00;82.21
69772;BME280;57046;45.988;18.664;2024-01-06T01:07:09;99722.50;;;11.00;82.48
69772;BME280;57046;45.988;18.664;2024-01-06T01:09:34;99728.38;;;11.02;82.70
69772;BME280;57046;45.988;18.664;2024-01-06T01:12:00;99724.19;;;10.92;83.02
69772;BME280;57046;45.988;18.664;2024-01-06T01:14:25;99725.31;;;11.03;83.05
69772;BME280;57046;45.988;18.664;2024-01-06T01:16:50;99721.66;;;11.23;82.41
69772;BME280;57046;45.988;18.664;2024-01-06T01:19:16;99717.16;;;11.28;82.35
69772;BME280;57046;45.988;18.664;2024-01-06T01:21:41;99715.78;;;11.34;82.23
69772;BME280;57046;45.988;18.664;2024-01-06T01:24:06;99709.56;;;11.33;82.51
69772;BME280;57046;45.988;18.664;2024-01-06T01:26:32;99713.75;;;11.31;83.15
69772;BME280;57046;45.988;18.664;2024-01-06T01:28:57;99710.72;;;11.32;83.21
69772;BME280;57046;45.988;18.664;2024-01-06T01:31:22;99709.94;;;11.32;83.38
69772;BME280;57046;45.988;18.664;2024-01-06T01:33:48;99707.91;;;11.29;83.60
69772;BME280;57046;45.988;18.664;2024-01-06T01:36:13;99716.56;;;11.34;83.62
69772;BME280;57046;45.988;18.664;2024-01-06T01:38:38;99702.81;;;11.39;83.36
69772;BME280;57046;45.988;18.664;2024-01-06T01:41:03;99693.56;;;11.40;83.26
69772;BME280;57046;45.988;18.664;2024-01-06T01:43:29;99685.34;;;11.37;83.38
69772;BME280;57046;45.988;18.664;2024-01-06T01:45:54;99671.88;;;11.24;83.64
69772;BME280;57046;45.988;18.664;2024-01-06T01:48:20;99683.91;;;11.27;84.09
69772;BME280;57046;45.988;18.664;2024-01-06T01:50:47;99687.41;;;11.28;84.35
69772;BME280;57046;45.988;18.664;2024-01-06T01:53:13;99673.56;;;11.29;84.59
69772;BME280;57046;45.988;18.664;2024-01-06T01:55:42;99670.88;;;11.17;85.19
69772;BME280;57046;45.988;18.664;2024-01-06T01:58:07;99668.47;;;11.28;85.41
69772;BME280;57046;45.988;18.664;2024-01-06T02:00:34;99664.66;;;11.29;85.42
69772;BME280;57046;45.988;18.664;2024-01-06T02:03:00;99668.25;;;11.20;85.37
69772;BME280;57046;45.988;18.664;2024-01-06T02:05:27;99664.97;;;10.87;86.68
69772;BME280;57046;45.988;18.664;2024-01-06T02:07:52;99662.69;;;11.01;86.13
69772;BME280;57046;45.988;18.664;2024-01-06T02:10:18;99649.28;;;11.05;86.12
69772;BME280;57046;45.988;18.664;2024-01-06T02:12:43;99637.78;;;11.08;85.86
69772;BME280;57046;45.988;18.664;2024-01-06T02:15:08;99642.72;;;11.06;85.74
69772;BME280;57046;45.988;18.664;2024-01-06T02:17:34;99646.19;;;11.18;85.66
69772;BME280;57046;45.988;18.664;2024-01-06T02:19:59;99643.69;;;11.26;85.10
69772;BME280;57046;45.988;18.664;2024-01-06T02:22:24;99642.13;;;11.12;85.46
69772;BME280;57046;45.988;18.664;2024-01-06T02:24:50;99633.41;;;11.03;85.47
69772;BME280;57046;45.988;18.664;2024-01-06T02:27:15;99630.22;;;11.13;85.33
69772;BME280;57046;45.988;18.664;2024-01-06T02:29:40;99629.50;;;11.16;85.47
69772;BME280;57046;45.988;18.664;2024-01-06T02:32:06;99630.88;;;11.22;84.64
69772;BME280;57046;45.988;18.664;2024-01-06T02:34:31;99629.28;;;11.21;84.84
69772;BME280;57046;45.988;18.664;2024-01-06T02:36:56;99629.63;;;11.20;85.05
69772;BME280;57046;45.988;18.664;2024-01-06T02:39:22;99625.59;;;11.14;85.28
69772;BME280;57046;45.988;18.664;2024-01-06T02:41:47;99614.44;;;11.15;85.49
69772;BME280;57046;45.988;18.664;2024-01-06T02:44:12;99620.13;;;11.26;85.05
69772;BME280;57046;45.988;18.664;2024-01-06T02:46:38;99613.34;;;11.32;84.78
69772;BME280;57046;45.988;18.664;2024-01-06T02:49:03;99599.03;;;11.32;84.61
69772;BME280;57046;45.988;18.664;2024-01-06T02:51:28;99596.63;;;11.14;85.96
69772;BME280;57046;45.988;18.664;2024-01-06T02:53:53;99589.53;;;10.82;88.33
69772;BME280;57046;45.988;18.664;2024-01-06T02:56:19;99593.47;;;10.85;89.45
69772;BME280;57046;45.988;18.664;2024-01-06T02:58:44;99587.69;;;10.98;89.67
69772;BME280;57046;45.988;18.664;2024-01-06T03:01:11;99572.97;;;10.84;89.36
69772;BME280;57046;45.988;18.664;2024-01-06T03:03:36;99573.72;;;10.96;89.71
69772;BME280;57046;45.988;18.664;2024-01-06T03:06:02;99579.13;;;10.96;90.26
69772;BME280;57046;45.988;18.664;2024-01-06T03:08:27;99572.69;;;11.01;90.68
69772;BME280;57046;45.988;18.664;2024-01-06T03:10:52;99569.72;;;11.06;90.49
69772;BME280;57046;45.988;18.664;2024-01-06T03:13:18;99570.38;;;11.15;90.04
69772;BME280;57046;45.988;18.664;2024-01-06T03:15:43;99557.25;;;11.29;89.40
69772;BME280;57046;45.988;18.664;2024-01-06T03:18:08;99566.72;;;11.23;89.33
69772;BME280;57046;45.988;18.664;2024-01-06T03:20:34;99562.91;;;11.40;89.00
69772;BME280;57046;45.988;18.664;2024-01-06T03:22:59;99556.31;;;11.53;88.02
69772;BME280;57046;45.988;18.664;2024-01-06T03:25:24;99559.47;;;11.70;87.11
69772;BME280;57046;45.988;18.664;2024-01-06T03:27:50;99551.25;;;11.67;86.88
69772;BME280;57046;45.988;18.664;2024-01-06T03:30:15;99553.81;;;11.76;86.09
69772;BME280;57046;45.988;18.664;2024-01-06T03:32:40;99549.44;;;11.71;86.16
69772;BME280;57046;45.988;18.664;2024-01-06T03:35:06;99554.56;;;11.45;87.23
69772;BME280;57046;45.988;18.664;2024-01-06T03:37:31;99547.88;;;11.27;88.32
69772;BME280;57046;45.988;18.664;2024-01-06T03:39:56;99544.75;;;11.24;88.59
69772;BME280;57046;45.988;18.664;2024-01-06T03:42:22;99545.22;;;11.42;88.06
69772;BME280;57046;45.988;18.664;2024-01-06T03:44:47;99537.44;;;11.41;87.97
69772;BME280;57046;45.988;18.664;2024-01-06T03:47:12;99540.50;;;11.55;87.51
69772;BME280;57046;45.988;18.664;2024-01-06T03:49:38;99539.47;;;11.59;87.24
69772;BME280;57046;45.988;18.664;2024-01-06T03:52:03;99538.63;;;11.71;86.52
69772;BME280;57046;45.988;18.664;2024-01-06T03:54:28;99532.97;;;11.76;86.02
69772;BME280;57046;45.988;18.664;2024-01-06T03:56:54;99531.97;;;11.84;85.63
69772;BME280;57046;45.988;18.664;2024-01-06T03:59:19;99520.81;;;11.70;86.04
69772;BME280;57046;45.988;18.664;2024-01-06T04:01:44;99521.84;;;11.81;85.71
69772;BME280;57046;45.988;18.664;2024-01-06T04:04:10;99523.75;;;11.81;85.98
69772;BME280;57046;45.988;18.664;2024-01-06T04:06:35;99517.63;;;11.68;86.24
69772;BME280;57046;45.988;18.664;2024-01-06T04:09:01;99520.16;;;11.61;87.13
69772;BME280;57046;45.988;18.664;2024-01-06T04:11:26;99514.84;;;11.64;86.97
69772;BME280;57046;45.988;18.664;2024-01-06T04:13:51;99505.53;;;11.78;86.48
69772;BME280;57046;45.988;18.664;2024-01-06T04:16:17;99506.13;;;11.87;85.93
69772;BME280;57046;45.988;18.664;2024-01-06T04:18:42;99512.84;;;11.93;85.39
69772;BME280;57046;45.988;18.664;2024-01-06T04:21:07;99501.56;;;11.91;85.19
69772;BME280;57046;45.988;18.664;2024-01-06T04:23:33;99506.06;;;11.83;85.79
69772;BME280;57046;45.988;18.664;2024-01-06T04:25:58;99501.41;;;11.68;86.42
69772;BME280;57046;45.988;18.664;2024-01-06T04:28:23;99500.19;;;11.65;86.67
69772;BME280;57046;45.988;18.664;2024-01-06T04:30:49;99495.81;;;11.61;87.19
69772;BME280;57046;45.988;18.664;2024-01-06T04:33:14;99504.56;;;11.86;86.18
69772;BME280;57046;45.988;18.664;2024-01-06T04:35:40;99493.66;;;11.82;85.58
69772;BME280;57046;45.988;18.664;2024-01-06T04:38:05;99486.41;;;11.86;85.43
69772;BME280;57046;45.988;18.664;2024-01-06T04:40:30;99490.47;;;11.96;84.90
69772;BME280;57046;45.988;18.664;2024-01-06T04:42:56;99491.47;;;11.72;85.75
69772;BME280;57046;45.988;18.664;2024-01-06T04:45:21;99491.09;;;11.58;86.85
69772;BME280;57046;45.988;18.664;2024-01-06T04:47:46;99492.94;;;11.69;86.72
69772;BME280;57046;45.988;18.664;2024-01-06T04:50:12;99486.66;;;11.81;85.52
69772;BME280;57046;45.988;18.664;2024-01-06T04:52:37;99492.78;;;11.94;85.30
69772;BME280;57046;45.988;18.664;2024-01-06T04:55:03;99491.19;;;11.93;85.22
69772;BME280;57046;45.988;18.664;2024-01-06T04:57:28;99489.81;;;11.83;85.78
69772;BME280;57046;45.988;18.664;2024-01-06T04:59:53;99492.25;;;11.88;85.63
69772;BME280;57046;45.988;18.664;2024-01-06T05:02:19;99490.78;;;11.75;86.13
69772;BME280;57046;45.988;18.664;2024-01-06T05:04:44;99485.94;;;11.68;87.07
69772;BME280;57046;45.988;18.664;2024-01-06T05:07:09;99494.34;;;11.79;86.84
69772;BME280;57046;45.988;18.664;2024-01-06T05:09:35;99472.16;;;11.58;87.74
69772;BME280;57046;45.988;18.664;2024-01-06T05:12:00;99479.94;;;11.44;89.00
69772;BME280;57046;45.988;18.664;2024-01-06T05:14:25;99475.50;;;11.51;88.91
69772;BME280;57046;45.988;18.664;2024-01-06T05:16:51;99480.53;;;11.68;88.18
69772;BME280;57046;45.988;18.664;2024-01-06T05:19:16;99477.94;;;11.41;89.30
69772;BME280;57046;45.988;18.664;2024-01-06T05:21:41;99487.81;;;11.49;88.91
69772;BME280;57046;45.988;18.664;2024-01-06T05:24:07;99490.22;;;11.54;89.07
69772;BME280;57046;45.988;18.664;2024-01-06T05:26:32;99487.53;;;11.54;88.86
69772;BME280;57046;45.988;18.664;2024-01-06T05:28:57;99484.66;;;11.62;88.22
69772;BME280;57046;45.988;18.664;2024-01-06T05:31:23;99484.47;;;11.55;88.42
69772;BME280;57046;45.988;18.664;2024-01-06T05:33:48;99482.03;;;11.35;89.77
69772;BME280;57046;45.988;18.664;2024-01-06T05:36:13;99488.03;;;11.44;89.30
69772;BME280;57046;45.988;18.664;2024-01-06T05:38:39;99486.22;;;11.48;88.72
69772;BME280;57046;45.988;18.664;2024-01-06T05:41:04;99484.63;;;11.47;88.94
69772;BME280;57046;45.988;18.664;2024-01-06T05:43:29;99493.38;;;11.56;88.42
69772;BME280;57046;45.988;18.664;2024-01-06T05:45:55;99496.59;;;11.61;88.23
69772;BME280;57046;45.988;18.664;2024-01-06T05:48:20;99498.28;;;11.66;87.40
69772;BME280;57046;45.988;18.664;2024-01-06T05:50:45;99489.97;;;11.59;88.06
69772;BME280;57046;45.988;18.664;2024-01-06T05:53:10;99498.28;;;11.66;87.62
69772;BME280;57046;45.988;18.664;2024-01-06T05:55:36;99507.44;;;11.93;86.68
69772;BME280;57046;45.988;18.664;2024-01-06T05:58:01;99503.31;;;11.99;85.62
69772;BME280;57046;45.988;18.664;2024-01-06T06:00:27;99512.94;;;11.96;85.72
69772;BME280;57046;45.988;18.664;2024-01-06T06:02:52;99502.44;;;11.95;85.52
69772;BME280;57046;45.988;18.664;2024-01-06T06:05:17;99505.19;;;11.79;86.51
69772;BME280;57046;45.988;18.664;2024-01-06T06:07:43;99504.22;;;11.71;86.74
69772;BME280;57046;45.988;18.664;2024-01-06T06:10:10;99503.06;;;11.88;86.10
69772;BME280;57046;45.988;18.664;2024-01-06T06:12:36;99496.84;;;11.88;86.06
69772;BME280;57046;45.988;18.664;2024-01-06T06:15:03;99505.06;;;11.91;85.58
69772;BME280;57046;45.988;18.664;2024-01-06T06:17:31;99505.69;;;11.85;85.95
69772;BME280;57046;45.988;18.664;2024-01-06T06:19:58;99509.44;;;11.96;85.95
69772;BME280;57046;45.988;18.664;2024-01-06T06:22:24;99506.91;;;12.03;85.15
69772;BME280;57046;45.988;18.664;2024-01-06T06:24:49;99505.69;;;12.00;84.96
69772;BME280;57046;45.988;18.664;2024-01-06T06:27:14;99500.19;;;11.97;85.24
69772;BME280;57046;45.988;18.664;2024-01-06T06:29:40;99500.88;;;11.94;85.32
69772;BME280;57046;45.988;18.664;2024-01-06T06:32:05;99503.13;;;12.07;84.44
69772;BME280;57046;45.988;18.664;2024-01-06T06:34:30;99503.69;;;11.97;85.10
69772;BME280;57046;45.988;18.664;2024-01-06T06:36:56;99496.84;;;11.88;85.25
69772;BME280;57046;45.988;18.664;2024-01-06T06:39:21;99481.34;;;11.69;85.81
69772;BME280;57046;45.988;18.664;2024-01-06T06:41:46;99483.25;;;11.21;87.96
69772;BME280;57046;45.988;18.664;2024-01-06T06:44:12;99491.09;;;11.27;88.13
69772;BME280;57046;45.988;18.664;2024-01-06T06:46:37;99489.19;;;11.27;88.02
69772;BME280;57046;45.988;18.664;2024-01-06T06:49:02;99485.16;;;11.21;88.17
69772;BME280;57046;45.988;18.664;2024-01-06T06:51:28;99478.44;;;11.15;88.62
69772;BME280;57046;45.988;18.664;2024-01-06T06:53:53;99486.84;;;11.41;87.73
69772;BME280;57046;45.988;18.664;2024-01-06T06:56:19;99486.59;;;11.46;87.14
69772;BME280;57046;45.988;18.664;2024-01-06T06:58:44;99497.72;;;11.60;86.64
69772;BME280;57046;45.988;18.664;2024-01-06T07:01:09;99497.13;;;11.51;86.93
69772;BME280;57046;45.988;18.664;2024-01-06T07:03:34;99493.38;;;11.40;87.15
69772;BME280;57046;45.988;18.664;2024-01-06T07:06:00;99491.81;;;11.39;87.04
69772;BME280;57046;45.988;18.664;2024-01-06T07:08:25;99499.22;;;11.42;87.14
69772;BME280;57046;45.988;18.664;2024-01-06T07:10:50;99495.63;;;11.54;86.99
69772;BME280;57046;45.988;18.664;2024-01-06T07:13:16;99496.44;;;11.54;86.79
69772;BME280;57046;45.988;18.664;2024-01-06T07:15:41;99498.19;;;11.62;86.44
69772;BME280;57046;45.988;18.664;2024-01-06T07:18:07;99501.50;;;11.71;85.96
69772;BME280;57046;45.988;18.664;2024-01-06T07:20:32;99496.00;;;11.68;85.86
69772;BME280;57046;45.988;18.664;2024-01-06T07:22:58;99499.94;;;11.86;85.17
69772;BME280;57046;45.988;18.664;2024-01-06T07:25:23;99507.34;;;11.89;85.06
69772;BME280;57046;45.988;18.664;2024-01-06T07:27:48;99504.13;;;11.84;85.53
69772;BME280;57046;45.988;18.664;2024-01-06T07:30:14;99502.66;;;11.86;85.33
69772;BME280;57046;45.988;18.664;2024-01-06T07:32:39;99494.84;;;11.85;84.98
69772;BME280;57046;45.988;18.664;2024-01-06T07:35:05;99497.41;;;11.93;85.31
69772;BME280;57046;45.988;18.664;2024-01-06T07:37:30;99491.81;;;11.86;85.21
69772;BME280;57046;45.988;18.664;2024-01-06T07:39:55;99497.13;;;11.67;85.72
69772;BME280;57046;45.988;18.664;2024-01-06T07:42:21;99482.66;;;11.59;86.63
69772;BME280;57046;45.988;18.664;2024-01-06T07:44:46;99479.00;;;11.36;87.36
69772;BME280;57046;45.988;18.664;2024-01-06T07:47:11;99475.75;;;11.31;87.47
69772;BME280;57046;45.988;18.664;2024-01-06T07:49:37;99472.84;;;11.23;88.29
69772;BME280;57046;45.988;18.664;2024-01-06T07:52:02;99469.47;;;11.27;88.19
69772;BME280;57046;45.988;18.664;2024-01-06T07:54:28;99459.28;;;11.36;87.83
69772;BME280;57046;45.988;18.664;2024-01-06T07:56:53;99475.56;;;11.23;88.22
69772;BME280;57046;45.988;18.664;2024-01-06T07:59:18;99473.06;;;11.46;87.91
69772;BME280;57046;45.988;18.664;2024-01-06T08:01:44;99491.81;;;11.55;86.86
69772;BME280;57046;45.988;18.664;2024-01-06T08:04:09;99500.28;;;11.69;86.11
69772;BME280;57046;45.988;18.664;2024-01-06T08:06:35;99496.16;;;11.91;85.01
69772;BME280;57046;45.988;18.664;2024-01-06T08:09:00;99485.94;;;12.00;85.01
69772;BME280;57046;45.988;18.664;2024-01-06T08:11:25;99470.03;;;11.98;84.97
69772;BME280;57046;45.988;18.664;2024-01-06T08:13:51;99483.72;;;12.05;84.48
69772;BME280;57046;45.988;18.664;2024-01-06T08:16:16;99477.91;;;11.88;84.80
69772;BME280;57046;45.988;18.664;2024-01-06T08:18:42;99481.53;;;11.76;85.34
69772;BME280;57046;45.988;18.664;2024-01-06T08:21:07;99483.06;;;11.77;85.38
69772;BME280;57046;45.988;18.664;2024-01-06T08:23:32;99485.94;;;12.00;84.71
69772;BME280;57046;45.988;18.664;2024-01-06T08:25:59;99487.88;;;12.18;83.99
69772;BME280;57046;45.988;18.664;2024-01-06T08:28:25;99486.69;;;12.16;84.06
69772;BME280;57046;45.988;18.664;2024-01-06T08:30:50;99476.06;;;12.07;84.38
69772;BME280;57046;45.988;18.664;2024-01-06T08:33:15;99474.75;;;12.01;84.63
69772;BME280;57046;45.988;18.664;2024-01-06T08:35:40;99471.78;;;11.91;85.11
69772;BME280;57046;45.988;18.664;2024-01-06T08:38:07;99472.56;;;11.91;85.37
69772;BME280;57046;45.988;18.664;2024-01-06T08:40:33;99472.78;;;11.83;86.93
69772;BME280;57046;45.988;18.664;2024-01-06T08:42:58;99468.81;;;11.96;86.20
69772;BME280;57046;45.988;18.664;2024-01-06T08:45:23;99472.31;;;11.96;85.73
69772;BME280;57046;45.988;18.664;2024-01-06T08:47:49;99474.88;;;12.24;85.00
69772;BME280;57046;45.988;18.664;2024-01-06T08:50:14;99478.16;;;12.33;84.30
69772;BME280;57046;45.988;18.664;2024-01-06T08:52:39;99484.34;;;12.34;84.44
69772;BME280;57046;45.988;18.664;2024-01-06T08:55:05;99485.78;;;12.28;84.34
69772;BME280;57046;45.988;18.664;2024-01-06T08:57:30;99488.91;;;12.30;84.00
69772;BME280;57046;45.988;18.664;2024-01-06T08:59:56;99489.31;;;12.32;83.96
69772;BME280;57046;45.988;18.664;2024-01-06T09:02:21;99498.69;;;12.34;83.68
69772;BME280;57046;45.988;18.664;2024-01-06T09:04:46;99495.28;;;12.37;83.32
69772;BME280;57046;45.988;18.664;2024-01-06T09:07:12;99493.28;;;12.53;83.13
69772;BME280;57046;45.988;18.664;2024-01-06T09:09:37;99500.34;;;12.58;83.40
69772;BME280;57046;45.988;18.664;2024-01-06T09:12:03;99496.91;;;12.61;83.69
69772;BME280;57046;45.988;18.664;2024-01-06T09:14:28;99487.59;;;12.58;83.89
69772;BME280;57046;45.988;18.664;2024-01-06T09:16:53;99490.44;;;12.65;83.73
69772;BME280;57046;45.988;18.664;2024-01-06T09:19:19;99483.66;;;12.75;83.69
69772;BME280;57046;45.988;18.664;2024-01-06T09:21:44;99488.22;;;12.71;83.47
69772;BME280;57046;45.988;18.664;2024-01-06T09:24:09;99486.56;;;12.47;83.38
69772;BME280;57046;45.988;18.664;2024-01-06T09:26:35;99466.59;;;12.55;83.60
69772;BME280;57046;45.988;18.664;2024-01-06T09:29:01;99473.94;;;12.74;83.55
69772;BME280;57046;45.988;18.664;2024-01-06T09:31:27;99470.44;;;12.73;84.19
69772;BME280;57046;45.988;18.664;2024-01-06T09:33:52;99449.13;;;12.53;83.92
69772;BME280;57046;45.988;18.664;2024-01-06T09:36:18;99456.69;;;12.44;84.27
69772;BME280;57046;45.988;18.664;2024-01-06T09:38:43;99447.63;;;12.36;84.98
69772;BME280;57046;45.988;18.664;2024-01-06T09:41:08;99451.69;;;12.07;86.04
69772;BME280;57046;45.988;18.664;2024-01-06T09:43:34;99451.75;;;12.11;86.01
69772;BME280;57046;45.988;18.664;2024-01-06T09:46:06;99449.56;;;12.36;85.55
69772;BME280;57046;45.988;18.664;2024-01-06T09:48:40;99437.28;;;12.42;85.34
69772;BME280;57046;45.988;18.664;2024-01-06T09:51:09;99444.06;;;12.32;85.68
69772;BME280;57046;45.988;18.664;2024-01-06T09:53:36;99442.44;;;12.47;84.96
69772;BME280;57046;45.988;18.664;2024-01-06T09:56:05;99432.94;;;12.56;84.13
69772;BME280;57046;45.988;18.664;2024-01-06T09:58:31;99437.25;;;12.80;84.32
69772;BME280;57046;45.988;18.664;2024-01-06T10:00:56;99434.09;;;12.97;84.31
69772;BME280;57046;45.988;18.664;2024-01-06T10:03:22;99434.53;;;12.99;83.88
69772;BME280;57046;45.988;18.664;2024-01-06T10:05:47;99427.19;;;12.81;85.26
69772;BME280;57046;45.988;18.664;2024-01-06T10:08:13;99427.84;;;12.74;85.23
69772;BME280;57046;45.988;18.664;2024-01-06T10:10:38;99431.28;;;12.71;85.01
69772;BME280;57046;45.988;18.664;2024-01-06T10:13:03;99429.63;;;12.86;84.40
69772;BME280;57046;45.988;18.664;2024-01-06T10:15:29;99431.63;;;12.89;84.66
69772;BME280;57046;45.988;18.664;2024-01-06T10:17:54;99422.50;;;12.77;84.50
69772;BME280;57046;45.988;18.664;2024-01-06T10:20:21;99410.72;;;12.70;84.72
69772;BME280;57046;45.988;18.664;2024-01-06T10:22:46;99427.59;;;12.83;84.30
69772;BME280;57046;45.988;18.664;2024-01-06T10:25:12;99425.81;;;12.90;84.47
69772;BME280;57046;45.988;18.664;2024-01-06T10:27:38;99423.16;;;12.94;83.66
69772;BME280;57046;45.988;18.664;2024-01-06T10:30:06;99421.31;;;12.98;83.00
69772;BME280;57046;45.988;18.664;2024-01-06T10:32:32;99409.69;;;12.97;83.96
69772;BME280;57046;45.988;18.664;2024-01-06T10:34:57;99419.06;;;13.03;83.38
69772;BME280;57046;45.988;18.664;2024-01-06T10:37:24;99411.22;;;13.17;83.49
69772;BME280;57046;45.988;18.664;2024-01-06T10:40:08;99401.59;;;13.23;83.39
69772;BME280;57046;45.988;18.664;2024-01-06T10:42:33;99392.16;;;13.37;83.22
69772;BME280;57046;45.988;18.664;2024-01-06T10:45:00;99400.50;;;13.51;82.62
69772;BME280;57046;45.988;18.664;2024-01-06T10:47:27;99389.34;;;13.56;82.42
69772;BME280;57046;45.988;18.664;2024-01-06T10:49:53;99390.81;;;13.50;82.45
69772;BME280;57046;45.988;18.664;2024-01-06T10:52:18;99391.09;;;13.45;82.76
69772;BME280;57046;45.988;18.664;2024-01-06T10:54:44;99376.78;;;13.48;82.81
69772;BME280;57046;45.988;18.664;2024-01-06T10:57:11;99367.72;;;13.63;82.20
69772;BME280;57046;45.988;18.664;2024-01-06T10:59:37;99351.47;;;13.66;82.59
69772;BME280;57046;45.988;18.664;2024-01-06T11:02:03;99343.34;;;13.66;81.33
69772;BME280;57046;45.988;18.664;2024-01-06T11:04:29;99343.63;;;13.61;82.94
69772;BME280;57046;45.988;18.664;2024-01-06T11:06:55;99340.41;;;13.52;83.88
69772;BME280;57046;45.988;18.664;2024-01-06T11:09:27;99345.06;;;13.52;83.59
69772;BME280;57046;45.988;18.664;2024-01-06T11:11:54;99345.56;;;13.61;82.27
69772;BME280;57046;45.988;18.664;2024-01-06T11:14:23;99342.75;;;13.80;81.53
69772;BME280;57046;45.988;18.664;2024-01-06T11:16:50;99336.81;;;13.74;80.14
69772;BME280;57046;45.988;18.664;2024-01-06T11:24:47;99339.78;;;14.25;79.94
69772;BME280;57046;45.988;18.664;2024-01-06T11:27:17;99334.47;;;14.03;80.68
69772;BME280;57046;45.988;18.664;2024-01-06T11:29:44;99326.50;;;14.17;80.64
69772;BME280;57046;45.988;18.664;2024-01-06T11:34:47;99322.47;;;14.37;80.07
69772;BME280;57046;45.988;18.664;2024-01-06T11:37:13;99316.25;;;14.37;79.63
69772;BME280;57046;45.988;18.664;2024-01-06T11:39:41;99294.00;;;14.27;78.99
69772;BME280;57046;45.988;18.664;2024-01-06T11:42:09;99302.06;;;14.20;79.62
69772;BME280;57046;45.988;18.664;2024-01-06T11:44:44;99311.28;;;14.42;79.57
69772;BME280;57046;45.988;18.664;2024-01-06T11:47:11;99304.59;;;14.36;79.60
69772;BME280;57046;45.988;18.664;2024-01-06T11:49:37;99302.41;;;14.49;78.98
69772;BME280;57046;45.988;18.664;2024-01-06T11:52:02;99309.41;;;14.53;79.39
69772;BME280;57046;45.988;18.664;2024-01-06T11:54:28;99297.38;;;14.51;77.97
69772;BME280;57046;45.988;18.664;2024-01-06T11:56:53;99293.56;;;14.59;78.88
69772;BME280;57046;45.988;18.664;2024-01-06T11:59:18;99297.75;;;14.53;79.15
69772;BME280;57046;45.988;18.664;2024-01-06T12:01:45;99298.53;;;14.53;79.54
69772;BME280;57046;45.988;18.664;2024-01-06T12:04:13;99284.72;;;14.69;78.56
69772;BME280;57046;45.988;18.664;2024-01-06T12:06:39;99294.47;;;14.77;77.66
69772;BME280;57046;45.988;18.664;2024-01-06T12:09:09;99291.78;;;14.81;77.69
69772;BME280;57046;45.988;18.664;2024-01-06T12:11:35;99284.88;;;14.90;77.57
69772;BME280;57046;45.988;18.664;2024-01-06T12:14:00;99290.63;;;14.82;77.30
69772;BME280;57046;45.988;18.664;2024-01-06T12:16:25;99296.50;;;14.87;76.55
69772;BME280;57046;45.988;18.664;2024-01-06T12:18:51;99292.28;;;14.93;76.60
69772;BME280;57046;45.988;18.664;2024-01-06T12:21:16;99299.75;;;15.03;76.59
69772;BME280;57046;45.988;18.664;2024-01-06T12:23:41;99290.84;;;15.06;77.42
69772;BME280;57046;45.988;18.664;2024-01-06T12:26:07;99282.28;;;15.08;77.65
69772;BME280;57046;45.988;18.664;2024-01-06T12:28:35;99281.91;;;15.09;77.77
69772;BME280;57046;45.988;18.664;2024-01-06T12:31:04;99269.78;;;14.96;77.33
69772;BME280;57046;45.988;18.664;2024-01-06T12:33:30;99286.97;;;15.14;77.87
69772;BME280;57046;45.988;18.664;2024-01-06T12:35:55;99278.81;;;15.14;77.52
69772;BME280;57046;45.988;18.664;2024-01-06T12:38:20;99286.97;;;15.14;77.21
69772;BME280;57046;45.988;18.664;2024-01-06T12:40:46;99280.47;;;15.26;76.87
69772;BME280;57046;45.988;18.664;2024-01-06T12:43:11;99285.88;;;15.22;76.49
69772;BME280;57046;45.988;18.664;2024-01-06T12:45:36;99294.09;;;15.29;76.13
69772;BME280;57046;45.988;18.664;2024-01-06T12:48:02;99292.97;;;15.34;76.06
69772;BME280;57046;45.988;18.664;2024-01-06T12:50:27;99299.16;;;15.35;76.59